로스앤젤레스, CA

10:06 AM PST on February 01, 2015 (GMT -0800)
Natural History Museum | Change Station
CLOSE
Current Station
Personal Weather Stations
Location: Los Angeles, CA
Elevation: 207 ft
Nearby Weather Stations

Elev 207 ft 34.02 °N, 118.29 °W | Updated 5 seconds ago

맑음
맑음
62.3 °F
Feels Like 62.3 °F
N
0.0
바람 Variable 바람 from
Gusts 1.0 mph

오늘
High -- | Low -- °F
--% Chance of Precip.
어제
High -- | Low -- °F
Precip. -- 인치
6:50 AM 5:23 PM
상현망간의 달, 95% visible
기압 30.12 인치
가시도 9.0 마일
구름 맑음
이슬점 53 °F
습도 73%
Rainfall 0.00 인치
Snow Depth Not available.
자외선 지수 3 out of 12
Pollen 6.90 out of 12
에어 품질 Not available.
Flu Activity Not available.
METAR KCQT 011747Z AUTO VRB04KT 9SM CLR 17/10 A3012 RMK AO2 SLP197 T01720100 10172 20094 51019

More Conditions Fewer Conditions

기압 30.12 인치
가시도 9.0 마일
구름 맑음
이슬점 53 °F
습도 73%
Rainfall 0.00 인치
Snow Depth Not available.
자외선 지수 3 out of 12
Pollen 6.90 out of 12
에어 품질 Not available.
Flu Activity Not available.
METAR KCQT 011747Z AUTO VRB04KT 9SM CLR 17/10 A3012 RMK AO2 SLP197 T01720100 10172 20094 51019

More Conditions Fewer Conditions

10-Day Weather Forecast

Almanac

천문

Feb. 01, 2015 Rise Set
Actual Time
Civil Twilight
Nautical Twilight
Astronomical Twilight
Moon
Length Of Visible Light
낮 길이
Tomorrow will be .
, % of the Moon is Illuminated

Today's Extremes

State Highs State Lows

Community

WunderPhotos

Upload Photos

1,792,417 photos uploaded!

WunderBlogs® & News

Nearby

에어 품질

  에어 품질 AQ Index Pollutant
Not available.

Snow Depth

Station Depth Elevation

Earthquake Activity

City Distance Mag. Time & Date
Minimum magnitude displayed is 2.5.

Coastal Water Temperatures

장소 기온

Nearby Weather Stations